createdAt,value
2022-08-26T00:01:54.181Z,5.13
2022-08-26T00:04:23.566Z,3.78
2022-08-26T00:06:50.856Z,3.35
2022-08-26T00:09:17.620Z,4.30
2022-08-26T00:11:45.355Z,3.35
2022-08-26T00:14:13.741Z,4.82
2022-08-26T00:16:47.524Z,5.15
2022-08-26T00:19:17.710Z,3.80
2022-08-26T00:21:45.482Z,4.10
2022-08-26T00:24:13.258Z,4.07
2022-08-26T00:26:41.417Z,3.78
2022-08-26T00:29:08.416Z,3.80
2022-08-26T00:31:36.441Z,4.47
2022-08-26T00:34:04.155Z,4.22
2022-08-26T00:36:31.863Z,3.88
2022-08-26T00:38:59.072Z,4.03
2022-08-26T00:41:25.804Z,4.15
2022-08-26T00:43:53.043Z,4.68
2022-08-26T00:46:31.342Z,4.03
2022-08-26T00:49:19.736Z,3.40
2022-08-26T00:51:52.260Z,3.72
2022-08-26T00:54:22.882Z,3.55
2022-08-26T00:56:53.252Z,4.28
2022-08-26T00:59:21.033Z,4.22
2022-08-26T01:01:47.971Z,5.22
2022-08-26T01:04:19.132Z,4.90
2022-08-26T01:06:47.958Z,5.65
2022-08-26T01:09:15.787Z,6.07
2022-08-26T01:11:42.766Z,4.85
2022-08-26T01:14:12.336Z,3.83
2022-08-26T01:16:39.174Z,4.35
2022-08-26T01:19:24.954Z,4.93
2022-08-26T01:22:02.442Z,4.80
2022-08-26T01:24:30.765Z,6.05
2022-08-26T01:27:01.636Z,4.28
2022-08-26T01:29:30.705Z,4.85
2022-08-26T01:31:58.759Z,4.28
2022-08-26T01:34:32.637Z,4.45
2022-08-26T01:37:11.734Z,3.78
2022-08-26T01:39:43.551Z,4.40
2022-08-26T01:42:14.623Z,4.75
2022-08-26T01:45:07.789Z,4.70
2022-08-26T01:47:37.841Z,5.32
2022-08-26T01:50:11.607Z,4.05
2022-08-26T01:52:41.245Z,4.30
2022-08-26T01:55:11.649Z,5.05
2022-08-26T01:57:39.301Z,4.80
2022-08-26T02:00:08.778Z,5.05
2022-08-26T02:02:35.497Z,4.65
2022-08-26T02:05:07.152Z,4.40
2022-08-26T02:07:34.391Z,4.35
2022-08-26T02:10:01.142Z,4.38
2022-08-26T02:12:28.261Z,4.13
2022-08-26T02:14:59.541Z,4.40
2022-08-26T02:17:33.800Z,4.90
2022-08-26T02:20:02.163Z,4.13
2022-08-26T02:22:30.572Z,4.22
2022-08-26T02:25:00.741Z,4.13
2022-08-26T02:27:33.249Z,4.10
2022-08-26T02:30:07.341Z,3.95
2022-08-26T02:32:34.089Z,4.80
2022-08-26T02:35:02.048Z,4.57
2022-08-26T02:37:30.940Z,4.28
2022-08-26T02:39:58.143Z,4.03
2022-08-26T02:42:25.035Z,4.32
2022-08-26T02:44:52.071Z,3.72
2022-08-26T02:47:18.787Z,4.35
2022-08-26T02:49:47.209Z,4.18
2022-08-26T02:52:14.561Z,4.40
2022-08-26T02:54:41.317Z,4.88
2022-08-26T02:57:09.240Z,4.95
2022-08-26T02:59:36.090Z,5.03
2022-08-26T03:02:03.233Z,4.80
2022-08-26T03:04:31.065Z,4.55
2022-08-26T03:07:00.220Z,4.13
2022-08-26T03:09:27.911Z,5.32
2022-08-26T03:11:55.461Z,4.55
2022-08-26T03:14:23.955Z,4.68
2022-08-26T03:16:53.879Z,4.43
2022-08-26T03:19:22.832Z,4.25
2022-08-26T03:21:49.665Z,5.18
2022-08-26T03:24:17.744Z,4.88
2022-08-26T03:26:52.969Z,4.75
2022-08-26T03:29:40.067Z,4.25
2022-08-26T03:32:07.129Z,4.32
2022-08-26T03:34:34.037Z,4.70
2022-08-26T03:37:01.162Z,4.30
2022-08-26T03:39:28.202Z,4.43
2022-08-26T03:41:58.887Z,4.95
2022-08-26T03:44:26.643Z,4.93
2022-08-26T03:46:54.499Z,4.10
2022-08-26T03:49:22.263Z,3.85
2022-08-26T03:51:49.003Z,3.88
2022-08-26T03:54:16.881Z,4.55
2022-08-26T03:56:43.582Z,4.60
2022-08-26T03:59:13.635Z,3.95
2022-08-26T04:01:40.396Z,4.43
2022-08-26T04:04:07.174Z,4.50
2022-08-26T04:06:42.395Z,4.47
2022-08-26T04:09:19.205Z,4.93
2022-08-26T04:11:47.522Z,5.35
2022-08-26T04:14:22.203Z,4.57
2022-08-26T04:16:49.744Z,5.18
2022-08-26T04:19:18.683Z,5.43
2022-08-26T04:21:48.095Z,5.68
2022-08-26T04:24:16.210Z,7.72
2022-08-26T04:26:44.417Z,6.82
2022-08-26T04:29:18.556Z,6.00
2022-08-26T04:31:47.978Z,5.75
2022-08-26T04:34:15.226Z,5.78
2022-08-26T04:36:43.161Z,5.90
2022-08-26T04:39:18.728Z,5.45
2022-08-26T04:41:48.038Z,4.40
2022-08-26T04:44:16.443Z,5.43
2022-08-26T04:46:44.338Z,5.55
2022-08-26T04:49:11.485Z,5.18
2022-08-26T04:51:39.037Z,4.65
2022-08-26T04:54:07.163Z,4.32
2022-08-26T04:56:40.186Z,4.95
2022-08-26T04:59:16.683Z,5.53
2022-08-26T05:01:46.652Z,4.40
2022-08-26T05:04:13.792Z,3.97
2022-08-26T05:06:43.584Z,4.03
2022-08-26T05:09:14.015Z,4.60
2022-08-26T05:11:42.388Z,5.22
2022-08-26T05:14:09.674Z,5.60
2022-08-26T05:16:37.626Z,5.20
2022-08-26T05:19:08.543Z,4.80
2022-08-26T05:21:36.407Z,4.70
2022-08-26T05:24:04.682Z,4.95
2022-08-26T05:26:32.043Z,5.78
2022-08-26T05:28:58.947Z,4.97
2022-08-26T05:31:32.563Z,4.80
2022-08-26T05:34:03.687Z,6.05
2022-08-26T05:36:33.486Z,5.00
2022-08-26T05:39:02.559Z,5.13
2022-08-26T05:41:34.273Z,5.35
2022-08-26T05:44:05.919Z,5.53
2022-08-26T05:46:33.547Z,4.68
2022-08-26T05:49:01.711Z,5.97
2022-08-26T05:51:29.298Z,4.25
2022-08-26T05:53:58.389Z,6.20
2022-08-26T05:56:27.357Z,4.88
2022-08-26T05:58:55.412Z,5.00
2022-08-26T06:01:28.374Z,4.88
2022-08-26T06:03:59.695Z,6.22
2022-08-26T06:06:32.436Z,5.43
2022-08-26T06:11:30.492Z,6.85
2022-08-26T06:14:03.574Z,5.73
2022-08-26T06:16:32.589Z,6.72
2022-08-26T06:19:02.991Z,6.25
2022-08-26T06:21:35.580Z,6.03
2022-08-26T06:24:26.957Z,6.13
2022-08-26T06:26:56.969Z,6.35
2022-08-26T06:29:25.844Z,6.93
2022-08-26T06:31:54.019Z,5.18
2022-08-26T06:36:58.416Z,4.68
2022-08-26T06:39:25.345Z,4.93
2022-08-26T06:41:52.150Z,5.28
2022-08-26T06:44:19.485Z,5.50
2022-08-26T06:46:50.311Z,5.50
2022-08-26T06:49:18.238Z,5.03
2022-08-26T06:51:55.173Z,5.10
2022-08-26T06:54:22.034Z,4.43
2022-08-26T06:56:49.467Z,4.65
2022-08-26T06:59:16.285Z,4.50
2022-08-26T07:01:45.002Z,3.95
2022-08-26T07:04:15.673Z,7.22
2022-08-26T07:06:48.942Z,11.82
2022-08-26T07:09:17.398Z,5.57
2022-08-26T07:11:45.111Z,5.53
2022-08-26T07:14:12.785Z,4.53
2022-08-26T07:16:42.732Z,4.45
2022-08-26T07:21:41.495Z,5.65
2022-08-26T07:24:11.184Z,6.55
2022-08-26T07:26:39.278Z,5.97
2022-08-26T07:29:12.418Z,5.47
2022-08-26T07:31:42.709Z,6.13
2022-08-26T07:34:10.842Z,7.57
2022-08-26T07:36:38.002Z,6.57
2022-08-26T07:39:06.130Z,4.32
2022-08-26T07:41:33.506Z,3.55
2022-08-26T07:44:00.914Z,3.80
2022-08-26T07:46:30.186Z,3.83
2022-08-26T07:48:58.249Z,3.90
2022-08-26T07:51:26.606Z,2.90
2022-08-26T07:53:54.746Z,3.85
2022-08-26T07:56:23.265Z,3.90
2022-08-26T07:58:52.193Z,3.33
2022-08-26T08:01:23.819Z,3.70
2022-08-26T08:03:55.021Z,6.47
2022-08-26T08:06:27.411Z,6.50
2022-08-26T08:08:55.794Z,9.18
2022-08-26T08:11:23.146Z,6.05
2022-08-26T08:13:56.294Z,15.30
2022-08-26T08:16:25.173Z,14.40
2022-08-26T08:18:53.572Z,26.55
2022-08-26T08:21:23.638Z,22.35
2022-08-26T08:23:54.740Z,32.15
2022-08-26T08:26:22.270Z,31.83
2022-08-26T08:28:49.445Z,36.22
2022-08-26T08:31:52.422Z,40.75
2022-08-26T08:34:10.955Z,39.65
2022-08-26T08:36:38.130Z,31.02
2022-08-26T08:39:06.409Z,23.52
2022-08-26T08:41:39.639Z,28.05
2022-08-26T08:44:10.689Z,32.47
2022-08-26T08:46:41.490Z,24.77
2022-08-26T08:49:10.783Z,25.20
2022-08-26T08:51:46.871Z,29.23
2022-08-26T08:54:16.306Z,38.05
2022-08-26T08:57:02.827Z,49.92
2022-08-26T08:59:38.543Z,53.92
2022-08-26T09:02:18.983Z,60.60
2022-08-26T09:04:58.859Z,50.88
2022-08-26T09:07:29.783Z,46.78
2022-08-26T09:10:20.749Z,47.03
2022-08-26T09:12:48.220Z,49.42
2022-08-26T09:15:21.546Z,44.17
2022-08-26T09:17:54.543Z,45.55
2022-08-26T09:20:31.163Z,46.95
2022-08-26T09:22:58.328Z,53.78
2022-08-26T09:25:25.573Z,53.95
2022-08-26T09:27:53.782Z,59.03
2022-08-26T09:30:33.050Z,58.25
2022-08-26T09:33:02.610Z,52.38
2022-08-26T09:35:36.900Z,46.17
2022-08-26T09:38:20.724Z,48.88
2022-08-26T09:40:59.213Z,48.28
2022-08-26T09:43:28.441Z,58.28
2022-08-26T09:46:10.228Z,54.50
2022-08-26T09:48:40.543Z,53.78
2022-08-26T09:51:26.590Z,54.78
2022-08-26T09:53:58.053Z,53.78
2022-08-26T09:56:27.595Z,60.47
2022-08-26T09:58:55.861Z,67.15
2022-08-26T10:01:33.137Z,57.85
2022-08-26T10:04:06.456Z,49.17
2022-08-26T10:06:38.204Z,47.58
2022-08-26T10:09:09.817Z,58.17
2022-08-26T10:11:44.957Z,47.15
2022-08-26T10:14:52.886Z,60.50
2022-08-26T10:17:35.192Z,57.13
2022-08-26T10:20:22.509Z,45.40
2022-08-26T10:23:05.908Z,48.70
2022-08-26T10:25:35.180Z,52.08
2022-08-26T10:28:28.481Z,47.20
2022-08-26T10:31:04.174Z,39.33
2022-08-26T10:33:31.702Z,37.50
2022-08-26T10:36:00.763Z,36.42
2022-08-26T10:38:35.536Z,45.30
2022-08-26T10:41:21.210Z,48.90
2022-08-26T10:43:52.093Z,33.42
2022-08-26T10:46:27.236Z,41.20
2022-08-26T10:48:59.895Z,48.28
2022-08-26T10:51:32.028Z,37.80
2022-08-26T10:54:04.711Z,40.65
2022-08-26T10:56:44.912Z,41.85
2022-08-26T10:59:13.586Z,52.97
2022-08-26T11:01:47.142Z,40.60
2022-08-26T11:04:30.415Z,42.10
2022-08-26T11:07:20.616Z,47.08
2022-08-26T11:09:49.747Z,47.30
2022-08-26T11:12:36.037Z,41.00
2022-08-26T11:15:06.426Z,42.22
2022-08-26T11:17:45.871Z,32.95
2022-08-26T11:20:31.571Z,34.15
2022-08-26T11:23:14.358Z,33.53
2022-08-26T11:25:56.940Z,36.58
2022-08-26T11:28:48.071Z,32.08
2022-08-26T11:31:21.096Z,33.40
2022-08-26T11:33:52.344Z,37.95
2022-08-26T11:36:40.010Z,31.67
2022-08-26T11:39:19.582Z,31.70
2022-08-26T11:41:48.050Z,28.48
2022-08-26T11:44:21.644Z,27.77
2022-08-26T11:47:01.596Z,30.75
2022-08-26T11:49:31.434Z,29.55
2022-08-26T11:52:15.949Z,22.60
2022-08-26T11:54:59.708Z,28.23
2022-08-26T11:57:27.078Z,24.20
2022-08-26T11:59:54.842Z,20.80
2022-08-26T12:02:21.966Z,22.23
2022-08-26T12:04:50.292Z,27.38
2022-08-26T12:07:23.975Z,23.50
2022-08-26T12:09:56.502Z,22.20
2022-08-26T12:12:26.060Z,35.15
2022-08-26T12:15:31.977Z,26.92
2022-08-26T12:18:00.317Z,29.48
2022-08-26T12:20:45.696Z,29.60
2022-08-26T12:23:23.446Z,33.10
2022-08-26T12:25:52.716Z,29.60
2022-08-26T12:28:21.492Z,30.83
2022-08-26T12:33:22.775Z,32.38
2022-08-26T12:35:54.324Z,36.50
2022-08-26T12:38:22.580Z,29.10
2022-08-26T12:40:50.335Z,28.02
2022-08-26T12:43:37.126Z,38.72
2022-08-26T12:46:06.664Z,31.00
2022-08-26T12:48:36.030Z,29.58
2022-08-26T12:51:03.918Z,34.42
2022-08-26T12:53:33.227Z,42.90
2022-08-26T12:56:05.347Z,43.35
2022-08-26T12:58:35.333Z,34.38
2022-08-26T13:01:06.458Z,39.53
2022-08-26T13:03:45.597Z,32.90
2022-08-26T13:06:31.257Z,35.40
2022-08-26T13:08:58.494Z,37.70
2022-08-26T13:11:33.765Z,45.08
2022-08-26T13:14:00.939Z,41.83
2022-08-26T13:16:29.033Z,33.60
2022-08-26T13:18:58.798Z,34.53
2022-08-26T13:21:29.560Z,42.10
2022-08-26T13:24:25.022Z,35.10
2022-08-26T13:26:52.192Z,33.47
2022-08-26T13:29:19.554Z,41.97
2022-08-26T13:31:47.899Z,37.80
2022-08-26T13:34:18.251Z,36.40
2022-08-26T13:36:46.119Z,34.92
2022-08-26T13:39:13.595Z,38.92
2022-08-26T13:41:40.913Z,45.00
2022-08-26T13:44:08.095Z,39.38
2022-08-26T13:46:35.353Z,39.83
2022-08-26T13:49:03.036Z,42.90
2022-08-26T13:51:30.636Z,42.15
2022-08-26T13:53:58.128Z,38.38
2022-08-26T13:56:27.455Z,38.47
2022-08-26T13:58:54.639Z,37.08
2022-08-26T14:01:21.762Z,38.30
2022-08-26T14:03:48.948Z,40.72
2022-08-26T14:06:16.295Z,38.83
2022-08-26T14:08:44.144Z,38.70
2022-08-26T14:11:11.432Z,34.78
2022-08-26T14:13:39.346Z,35.17
2022-08-26T14:16:09.645Z,32.85
2022-08-26T14:18:41.846Z,29.88
2022-08-26T14:21:12.084Z,27.73
2022-08-26T14:23:40.123Z,43.85
2022-08-26T14:26:11.718Z,36.58
2022-08-26T14:28:55.655Z,38.83
2022-08-26T14:31:23.786Z,39.05
2022-08-26T14:33:51.129Z,35.03
2022-08-26T14:36:33.614Z,31.90
2022-08-26T14:39:05.965Z,36.25
2022-08-26T14:41:34.074Z,32.08
2022-08-26T14:44:03.889Z,39.13
2022-08-26T14:46:32.358Z,39.83
2022-08-26T14:49:01.812Z,39.97
2022-08-26T14:54:12.583Z,38.47
2022-08-26T14:56:42.487Z,40.17
2022-08-26T14:59:10.361Z,37.15
2022-08-26T15:01:37.709Z,33.45
2022-08-26T15:04:04.998Z,40.30
2022-08-26T15:06:33.047Z,38.22
2022-08-26T15:09:00.321Z,37.50
2022-08-26T15:11:27.639Z,39.13
2022-08-26T15:13:55.264Z,38.97
2022-08-26T15:16:23.022Z,36.95
2022-08-26T15:18:51.740Z,40.05
2022-08-26T15:21:19.419Z,38.55
2022-08-26T15:23:47.726Z,33.88
2022-08-26T15:26:15.383Z,33.05
2022-08-26T15:28:42.887Z,28.23
2022-08-26T15:31:10.684Z,35.65
2022-08-26T15:33:38.262Z,37.03
2022-08-26T15:36:06.420Z,36.00
2022-08-26T15:38:38.379Z,37.15
2022-08-26T15:41:06.430Z,36.55
2022-08-26T15:43:33.649Z,33.35
2022-08-26T15:46:01.130Z,35.38
2022-08-26T15:48:28.887Z,29.40
2022-08-26T15:50:59.750Z,30.77
2022-08-26T15:53:27.360Z,30.20
2022-08-26T15:55:56.322Z,31.35
2022-08-26T15:58:24.866Z,30.70
2022-08-26T16:03:21.297Z,31.70
2022-08-26T16:05:48.529Z,30.05
2022-08-26T16:08:16.020Z,30.27
2022-08-26T16:10:49.401Z,33.75
2022-08-26T16:13:18.116Z,34.17
2022-08-26T16:15:45.494Z,36.28
2022-08-26T16:18:13.988Z,33.40
2022-08-26T16:20:55.373Z,30.10
2022-08-26T16:23:35.363Z,28.27
2022-08-26T16:26:12.876Z,32.67
2022-08-26T16:28:40.037Z,27.15
2022-08-26T16:31:07.620Z,31.02
2022-08-26T16:33:34.848Z,33.65
2022-08-26T16:36:02.303Z,32.30
2022-08-26T16:38:32.225Z,28.23
2022-08-26T16:41:03.044Z,40.47
2022-08-26T16:43:30.300Z,32.17
2022-08-26T16:45:57.902Z,31.92
2022-08-26T16:48:25.198Z,34.72
2022-08-26T16:50:54.388Z,34.92
2022-08-26T16:53:21.937Z,32.63
2022-08-26T16:55:50.144Z,34.25
2022-08-26T16:58:17.683Z,35.15
2022-08-26T17:00:45.347Z,37.33
2022-08-26T17:03:13.082Z,32.40
2022-08-26T17:05:40.388Z,33.35
2022-08-26T17:08:07.872Z,34.80
2022-08-26T17:10:35.096Z,33.42
2022-08-26T17:13:02.558Z,31.48
2022-08-26T17:15:29.877Z,33.53
2022-08-26T17:17:57.382Z,35.15
2022-08-26T17:20:25.220Z,34.58
2022-08-26T17:22:53.170Z,26.00
2022-08-26T17:25:22.041Z,26.70
2022-08-26T17:27:49.335Z,23.10
2022-08-26T17:30:17.701Z,27.30
2022-08-26T17:32:44.972Z,28.42
2022-08-26T17:35:12.968Z,34.22
2022-08-26T17:37:40.476Z,29.45
2022-08-26T17:40:09.649Z,40.28
2022-08-26T17:42:40.354Z,38.90
2022-08-26T17:45:08.787Z,38.53
2022-08-26T17:47:36.003Z,39.53
2022-08-26T17:50:04.695Z,39.75
2022-08-26T17:52:34.237Z,43.35
2022-08-26T17:55:01.441Z,41.53
2022-08-26T17:57:28.791Z,35.90
2022-08-26T17:59:56.857Z,40.40
2022-08-26T18:02:24.328Z,34.50
2022-08-26T18:04:51.498Z,33.78
2022-08-26T18:07:18.652Z,31.08
2022-08-26T18:09:45.873Z,37.47
2022-08-26T18:12:13.183Z,40.97
2022-08-26T18:14:40.320Z,35.95
2022-08-26T18:17:07.812Z,39.17
2022-08-26T18:19:35.257Z,39.40
2022-08-26T18:22:02.390Z,35.75
2022-08-26T18:24:32.077Z,39.80
2022-08-26T18:26:59.235Z,34.08
2022-08-26T18:29:27.881Z,34.22
2022-08-26T18:31:55.015Z,51.83
2022-08-26T18:34:22.218Z,42.58
2022-08-26T18:36:52.139Z,44.33
2022-08-26T18:39:19.475Z,39.05
2022-08-26T18:41:53.058Z,45.42
2022-08-26T18:44:23.178Z,61.08
2022-08-26T18:46:51.215Z,37.42
2022-08-26T18:49:19.265Z,39.00
2022-08-26T18:51:46.710Z,46.88
2022-08-26T18:54:14.293Z,36.75
2022-08-26T18:56:42.383Z,36.55
2022-08-26T18:59:09.552Z,49.65
2022-08-26T19:01:37.787Z,62.65
2022-08-26T19:04:05.697Z,36.50
2022-08-26T19:06:35.332Z,35.85
2022-08-26T19:09:03.274Z,41.97
2022-08-26T19:11:37.393Z,41.17
2022-08-26T19:14:10.636Z,39.10
2022-08-26T19:16:38.739Z,37.72
2022-08-26T19:19:06.353Z,50.70
2022-08-26T19:21:34.411Z,55.92
2022-08-26T19:24:02.538Z,50.45
2022-08-26T19:26:30.605Z,50.80
2022-08-26T19:28:58.388Z,57.17
2022-08-26T19:31:25.744Z,56.58
2022-08-26T19:33:53.397Z,52.83
2022-08-26T19:36:22.596Z,60.10
2022-08-26T19:38:50.105Z,55.97
2022-08-26T19:41:18.772Z,51.25
2022-08-26T19:43:46.558Z,55.40
2022-08-26T19:46:15.956Z,51.63
2022-08-26T19:48:44.378Z,56.35
2022-08-26T19:51:18.474Z,61.53
2022-08-26T19:53:46.259Z,61.63
2022-08-26T19:56:13.646Z,59.60
2022-08-26T19:58:41.247Z,53.97
2022-08-26T20:01:09.099Z,61.38
2022-08-26T20:03:37.051Z,57.85
2022-08-26T20:06:05.275Z,63.28
2022-08-26T20:08:33.192Z,56.10
2022-08-26T20:11:01.723Z,63.53
2022-08-26T20:13:29.012Z,67.85
2022-08-26T20:15:56.257Z,56.40
2022-08-26T20:18:42.037Z,69.53
2022-08-26T20:21:27.850Z,61.72
2022-08-26T20:23:56.363Z,63.05
2022-08-26T20:26:23.705Z,63.58
2022-08-26T20:28:51.268Z,62.03
2022-08-26T20:31:19.386Z,75.13
2022-08-26T20:33:46.811Z,68.97
2022-08-26T20:36:17.475Z,61.70
2022-08-26T20:38:45.981Z,66.10
2022-08-26T20:41:13.737Z,73.82
2022-08-26T20:43:42.647Z,57.65
2022-08-26T20:46:18.003Z,75.50
2022-08-26T20:48:46.038Z,66.60
2022-08-26T20:51:13.651Z,58.40
2022-08-26T20:53:41.396Z,58.83
2022-08-26T20:56:09.931Z,56.00
2022-08-26T20:58:37.591Z,60.80
2022-08-26T21:01:08.018Z,54.42
2022-08-26T21:03:36.349Z,62.22
2022-08-26T21:06:04.182Z,58.55
2022-08-26T21:08:33.325Z,62.53
2022-08-26T21:11:00.978Z,62.13
2022-08-26T21:13:42.851Z,59.85
2022-08-26T21:16:11.556Z,54.53
2022-08-26T21:18:39.091Z,56.08
2022-08-26T21:21:07.274Z,53.00
2022-08-26T21:23:34.745Z,53.22
2022-08-26T21:26:03.141Z,53.67
2022-08-26T21:28:30.415Z,60.53
2022-08-26T21:30:57.577Z,54.08
2022-08-26T21:33:24.741Z,52.50
2022-08-26T21:35:55.595Z,47.95
2022-08-26T21:38:23.070Z,58.53
2022-08-26T21:41:10.377Z,54.35
2022-08-26T21:43:38.389Z,51.58
2022-08-26T21:46:14.622Z,52.17
2022-08-26T21:48:50.367Z,49.95
2022-08-26T21:51:18.981Z,57.65
2022-08-26T21:53:48.267Z,48.22
2022-08-26T21:56:16.832Z,69.70
2022-08-26T21:58:44.777Z,62.05
2022-08-26T22:01:16.587Z,63.90
2022-08-26T22:03:47.253Z,60.35
2022-08-26T22:06:16.085Z,57.15
2022-08-26T22:08:43.277Z,63.92
2022-08-26T22:11:10.597Z,68.82
2022-08-26T22:13:38.791Z,58.83
2022-08-26T22:16:06.518Z,62.95
2022-08-26T22:18:33.954Z,61.60
2022-08-26T22:21:02.254Z,59.88
2022-08-26T22:23:29.755Z,58.15
2022-08-26T22:25:57.081Z,58.33
2022-08-26T22:28:24.390Z,59.25
2022-08-26T22:30:52.638Z,54.58
2022-08-26T22:33:19.869Z,71.25
2022-08-26T22:35:48.153Z,70.30
2022-08-26T22:38:15.551Z,70.53
2022-08-26T22:40:47.813Z,75.70
2022-08-26T22:43:15.194Z,71.32
2022-08-26T22:45:43.879Z,68.28
2022-08-26T22:48:12.187Z,59.15
2022-08-26T22:50:39.606Z,72.78
2022-08-26T22:53:06.804Z,56.08
2022-08-26T22:55:33.994Z,50.38
2022-08-26T22:58:01.194Z,47.63
2022-08-26T23:00:32.437Z,45.55
2022-08-26T23:03:00.297Z,61.13
2022-08-26T23:05:27.815Z,53.13
2022-08-26T23:07:56.666Z,48.30
2022-08-26T23:10:24.482Z,47.90
2022-08-26T23:12:52.424Z,48.60
2022-08-26T23:15:20.957Z,44.90
2022-08-26T23:17:48.386Z,54.45
2022-08-26T23:20:26.360Z,42.75
2022-08-26T23:22:53.742Z,45.45
2022-08-26T23:25:21.152Z,47.38
2022-08-26T23:27:48.610Z,51.47
2022-08-26T23:30:18.109Z,48.60
2022-08-26T23:32:45.710Z,72.78
2022-08-26T23:35:14.314Z,59.30
2022-08-26T23:37:44.114Z,67.55
2022-08-26T23:40:15.553Z,68.93
2022-08-26T23:42:42.835Z,56.97
2022-08-26T23:45:11.397Z,54.55
2022-08-26T23:47:38.645Z,54.67
2022-08-26T23:50:06.413Z,48.97
2022-08-26T23:52:52.222Z,45.88
2022-08-26T23:55:21.595Z,42.60
2022-08-26T23:57:48.774Z,50.25
